createdAt,value
2022-09-02T00:00:14.596Z,12.20
2022-09-02T00:02:46.549Z,12.93
2022-09-02T00:05:18.204Z,11.97
2022-09-02T00:07:49.831Z,11.22
2022-09-02T00:10:22.159Z,11.75
2022-09-02T00:12:54.129Z,11.25
2022-09-02T00:15:25.935Z,11.85
2022-09-02T00:17:59.003Z,10.35
2022-09-02T00:20:32.457Z,11.00
2022-09-02T00:23:04.721Z,11.28
2022-09-02T00:25:41.183Z,11.20
2022-09-02T00:28:19.081Z,11.63
2022-09-02T00:30:51.177Z,10.93
2022-09-02T00:33:26.009Z,11.28
2022-09-02T00:35:57.686Z,11.53
2022-09-02T00:38:31.027Z,10.95
2022-09-02T00:41:03.950Z,9.68
2022-09-02T00:43:37.902Z,9.95
2022-09-02T00:46:09.694Z,11.03
2022-09-02T00:48:45.179Z,10.08
2022-09-02T00:51:19.558Z,18.77
2022-09-02T00:53:51.500Z,10.05
2022-09-02T00:56:25.955Z,9.35
2022-09-02T00:58:58.251Z,10.30
2022-09-02T01:01:30.310Z,10.10
2022-09-02T01:04:01.975Z,9.33
2022-09-02T01:06:35.441Z,9.55
2022-09-02T01:09:10.451Z,8.93
2022-09-02T01:11:44.363Z,8.60
2022-09-02T01:14:15.808Z,9.63
2022-09-02T01:16:49.821Z,9.23
2022-09-02T01:19:25.769Z,10.45
2022-09-02T01:22:02.697Z,9.75
2022-09-02T01:24:36.569Z,10.13
2022-09-02T01:27:08.174Z,9.65
2022-09-02T01:29:39.704Z,8.68
2022-09-02T01:32:11.375Z,9.53
2022-09-02T01:34:43.617Z,8.43
2022-09-02T01:37:15.115Z,9.13
2022-09-02T01:39:47.718Z,8.03
2022-09-02T01:42:19.628Z,8.03
2022-09-02T01:44:54.042Z,7.33
2022-09-02T01:47:28.269Z,7.95
2022-09-02T01:49:59.858Z,7.15
2022-09-02T01:52:31.706Z,6.78
2022-09-02T01:55:02.900Z,7.20
2022-09-02T01:57:33.928Z,7.55
2022-09-02T02:00:05.744Z,7.80
2022-09-02T02:02:36.843Z,7.30
2022-09-02T02:05:08.282Z,7.50
2022-09-02T02:07:41.809Z,7.08
2022-09-02T02:10:13.905Z,7.30
2022-09-02T02:12:47.105Z,7.40
2022-09-02T02:15:19.793Z,7.00
2022-09-02T02:17:50.935Z,7.17
2022-09-02T02:20:23.049Z,6.75
2022-09-02T02:22:53.947Z,6.85
2022-09-02T02:25:24.867Z,6.22
2022-09-02T02:27:55.827Z,6.58
2022-09-02T02:30:26.881Z,6.20
2022-09-02T02:32:57.894Z,6.53
2022-09-02T02:35:28.656Z,6.40
2022-09-02T02:37:59.387Z,6.10
2022-09-02T02:40:31.862Z,7.45
2022-09-02T02:43:03.600Z,6.97
2022-09-02T02:45:34.836Z,6.80
2022-09-02T02:48:06.089Z,6.08
2022-09-02T02:50:39.337Z,6.17
2022-09-02T02:53:10.516Z,7.00
2022-09-02T02:55:43.180Z,6.80
2022-09-02T02:58:16.619Z,6.45
2022-09-02T03:00:47.414Z,5.80
2022-09-02T03:03:20.463Z,6.90
2022-09-02T03:05:53.297Z,6.10
2022-09-02T03:08:26.831Z,5.58
2022-09-02T03:10:59.241Z,6.42
2022-09-02T03:13:32.097Z,6.53
2022-09-02T03:16:03.641Z,5.75
2022-09-02T03:18:34.963Z,6.42
2022-09-02T03:21:09.533Z,5.87
2022-09-02T03:23:40.366Z,5.92
2022-09-02T03:26:13.714Z,5.37
2022-09-02T03:28:44.960Z,4.70
2022-09-02T03:31:18.300Z,4.70
2022-09-02T03:33:49.247Z,3.98
2022-09-02T03:36:22.901Z,3.83
2022-09-02T03:38:54.145Z,4.30
2022-09-02T03:41:25.196Z,5.00
2022-09-02T03:43:55.930Z,3.87
2022-09-02T03:46:27.820Z,3.37
2022-09-02T03:48:58.625Z,3.83
2022-09-02T03:51:30.565Z,4.50
2022-09-02T03:54:01.832Z,4.53
2022-09-02T03:56:32.902Z,4.78
2022-09-02T03:59:04.221Z,4.47
2022-09-02T04:01:35.827Z,4.37
2022-09-02T04:04:08.861Z,5.25
2022-09-02T04:06:40.803Z,4.50
2022-09-02T04:09:11.575Z,4.62
2022-09-02T04:11:44.034Z,4.05
2022-09-02T04:14:15.410Z,4.50
2022-09-02T04:16:46.732Z,4.22
2022-09-02T04:19:18.285Z,4.60
2022-09-02T04:21:49.008Z,4.42
2022-09-02T04:24:19.724Z,3.80
2022-09-02T04:26:50.496Z,4.05
2022-09-02T04:29:21.842Z,4.28
2022-09-02T04:31:54.501Z,4.28
2022-09-02T04:34:25.558Z,4.50
2022-09-02T04:36:56.689Z,4.05
2022-09-02T04:39:27.657Z,4.10
2022-09-02T04:41:58.486Z,3.90
2022-09-02T04:44:29.454Z,4.30
2022-09-02T04:47:00.367Z,3.70
2022-09-02T04:49:32.565Z,4.10
2022-09-02T04:52:03.795Z,4.00
2022-09-02T04:54:34.749Z,3.85
2022-09-02T04:57:06.168Z,4.40
2022-09-02T04:59:37.909Z,4.50
2022-09-02T05:02:09.792Z,4.40
2022-09-02T05:04:42.655Z,4.25
2022-09-02T05:07:13.209Z,4.00
2022-09-02T05:09:44.651Z,4.35
2022-09-02T05:12:16.303Z,3.80
2022-09-02T05:14:49.297Z,4.17
2022-09-02T05:17:20.368Z,3.45
2022-09-02T05:19:51.989Z,3.60
2022-09-02T05:22:22.867Z,3.72
2022-09-02T05:24:54.482Z,3.83
2022-09-02T05:27:34.556Z,3.62
2022-09-02T05:30:06.811Z,3.80
2022-09-02T05:32:38.284Z,3.47
2022-09-02T05:35:09.527Z,4.00
2022-09-02T05:37:40.655Z,3.72
2022-09-02T05:40:14.697Z,4.00
2022-09-02T05:42:46.077Z,4.03
2022-09-02T05:45:18.911Z,3.70
2022-09-02T05:47:49.976Z,3.77
2022-09-02T05:50:21.804Z,4.17
2022-09-02T05:52:54.075Z,4.37
2022-09-02T05:55:25.254Z,3.77
2022-09-02T05:57:56.489Z,4.12
2022-09-02T06:00:27.836Z,4.58
2022-09-02T06:02:59.145Z,4.42
2022-09-02T06:05:31.243Z,3.90
2022-09-02T06:11:04.166Z,4.35
2022-09-02T06:13:37.202Z,3.87
2022-09-02T06:16:09.865Z,4.15
2022-09-02T06:18:40.956Z,4.65
2022-09-02T06:21:12.315Z,4.00
2022-09-02T06:23:43.832Z,3.72
2022-09-02T06:26:16.112Z,4.55
2022-09-02T06:28:47.253Z,4.70
2022-09-02T06:31:20.505Z,3.95
2022-09-02T06:33:53.682Z,4.95
2022-09-02T06:36:28.122Z,5.12
2022-09-02T06:39:01.204Z,4.40
2022-09-02T06:41:34.782Z,5.00
2022-09-02T06:44:07.758Z,4.30
2022-09-02T06:46:41.265Z,4.60
2022-09-02T06:49:13.422Z,4.50
2022-09-02T06:51:47.120Z,4.50
2022-09-02T06:54:20.929Z,4.60
2022-09-02T06:56:53.324Z,4.40
2022-09-02T06:59:24.926Z,4.28
2022-09-02T07:01:56.285Z,4.65
2022-09-02T07:04:28.501Z,4.40
2022-09-02T07:07:00.010Z,3.80
2022-09-02T07:09:32.792Z,4.20
2022-09-02T07:12:05.921Z,4.05
2022-09-02T07:14:39.588Z,4.50
2022-09-02T07:17:12.125Z,4.42
2022-09-02T07:19:43.111Z,4.25
2022-09-02T07:22:14.050Z,4.20
2022-09-02T07:24:46.640Z,4.40
2022-09-02T07:27:18.008Z,4.50
2022-09-02T07:29:50.260Z,4.42
2022-09-02T07:32:23.031Z,4.40
2022-09-02T07:34:53.744Z,3.98
2022-09-02T07:37:24.502Z,3.87
2022-09-02T07:39:56.027Z,4.22
2022-09-02T07:44:58.556Z,3.67
2022-09-02T07:47:29.471Z,4.10
2022-09-02T07:50:19.010Z,4.20
2022-09-02T07:52:32.506Z,4.70
2022-09-02T07:55:04.396Z,3.90
2022-09-02T07:57:35.410Z,4.40
2022-09-02T08:00:08.357Z,4.95
2022-09-02T08:02:39.279Z,4.15
2022-09-02T08:05:10.458Z,4.50
2022-09-02T08:07:41.493Z,3.85
2022-09-02T08:10:14.327Z,4.22
2022-09-02T08:12:48.182Z,4.50
2022-09-02T08:15:21.483Z,4.30
2022-09-02T08:17:53.318Z,4.37
2022-09-02T08:20:24.634Z,5.03
2022-09-02T08:23:05.251Z,4.78
2022-09-02T08:25:28.330Z,4.70
2022-09-02T08:27:59.259Z,4.33
2022-09-02T08:30:30.681Z,4.72
2022-09-02T08:33:01.720Z,4.80
2022-09-02T08:35:32.675Z,4.85
2022-09-02T08:38:04.013Z,5.08
2022-09-02T08:40:37.603Z,4.78
2022-09-02T08:43:10.944Z,4.40
2022-09-02T08:45:42.596Z,4.45
2022-09-02T08:48:15.920Z,4.55
2022-09-02T08:50:48.467Z,4.70
2022-09-02T08:53:20.098Z,4.45
2022-09-02T08:55:55.042Z,4.47
2022-09-02T08:58:29.867Z,4.47
2022-09-02T09:01:05.523Z,4.37
2022-09-02T09:03:40.292Z,4.75
2022-09-02T09:06:13.560Z,4.72
2022-09-02T09:08:47.021Z,4.33
2022-09-02T09:11:19.005Z,4.87
2022-09-02T09:13:52.503Z,4.12
2022-09-02T09:16:25.888Z,4.53
2022-09-02T09:19:00.155Z,4.33
2022-09-02T09:21:34.748Z,4.55
2022-09-02T09:24:08.162Z,4.03
2022-09-02T09:26:42.203Z,4.55
2022-09-02T09:29:13.679Z,5.05
2022-09-02T09:31:46.670Z,4.50
2022-09-02T09:34:18.250Z,4.83
2022-09-02T09:36:55.199Z,4.83
2022-09-02T09:39:27.311Z,5.00
2022-09-02T09:42:00.789Z,4.92
2022-09-02T09:44:33.996Z,4.90
2022-09-02T09:47:07.447Z,4.90
2022-09-02T09:49:41.942Z,4.78
2022-09-02T09:52:13.446Z,5.30
2022-09-02T09:54:49.190Z,4.87
2022-09-02T09:57:22.850Z,4.53
2022-09-02T09:59:55.827Z,4.78
2022-09-02T10:02:31.121Z,4.70
2022-09-02T10:05:03.730Z,4.47
2022-09-02T10:07:37.424Z,4.60
2022-09-02T10:10:10.943Z,4.92
2022-09-02T10:12:41.998Z,5.10
2022-09-02T10:15:13.897Z,5.08
2022-09-02T10:17:45.732Z,4.70
2022-09-02T10:20:19.486Z,4.97
2022-09-02T10:22:59.509Z,5.10
2022-09-02T10:25:26.200Z,4.70
2022-09-02T10:28:00.766Z,4.97
2022-09-02T10:30:33.962Z,5.70
2022-09-02T10:33:07.751Z,5.75
2022-09-02T10:35:41.104Z,5.35
2022-09-02T10:38:14.741Z,5.03
2022-09-02T10:40:48.631Z,5.40
2022-09-02T10:43:22.229Z,4.92
2022-09-02T10:45:55.636Z,5.10
2022-09-02T10:48:29.205Z,5.05
2022-09-02T10:51:01.272Z,5.00
2022-09-02T10:53:33.033Z,5.40
2022-09-02T10:56:06.746Z,5.42
2022-09-02T10:58:42.693Z,5.47
2022-09-02T11:01:16.445Z,5.62
2022-09-02T11:03:49.972Z,5.80
2022-09-02T11:06:26.210Z,6.20
2022-09-02T11:08:58.123Z,5.25
2022-09-02T11:11:29.901Z,6.58
2022-09-02T11:14:03.107Z,6.87
2022-09-02T11:19:10.789Z,6.95
2022-09-02T11:21:42.960Z,6.97
2022-09-02T11:24:14.846Z,6.37
2022-09-02T11:26:48.225Z,6.30
2022-09-02T11:29:19.974Z,7.80
2022-09-02T11:31:53.171Z,7.30
2022-09-02T11:34:24.982Z,7.20
2022-09-02T11:36:55.811Z,7.55
2022-09-02T11:39:36.513Z,7.25
2022-09-02T11:42:03.986Z,7.60
2022-09-02T11:44:37.383Z,5.78
2022-09-02T11:47:09.235Z,5.78
2022-09-02T11:49:42.404Z,4.80
2022-09-02T11:52:15.752Z,4.05
2022-09-02T11:54:50.186Z,2.92
2022-09-02T11:57:23.485Z,2.50
2022-09-02T11:59:53.989Z,2.00
2022-09-02T12:02:27.271Z,1.27
2022-09-02T12:05:01.531Z,1.55
2022-09-02T12:07:34.002Z,1.50
2022-09-02T12:10:06.006Z,2.00
2022-09-02T12:12:38.105Z,2.30
2022-09-02T12:15:09.441Z,2.35
2022-09-02T12:17:41.341Z,2.27
2022-09-02T12:20:14.816Z,1.82
2022-09-02T12:22:48.759Z,1.50
2022-09-02T12:25:20.282Z,1.20
2022-09-02T12:27:52.942Z,1.72
2022-09-02T12:30:26.279Z,1.30
2022-09-02T12:32:58.146Z,1.20
2022-09-02T12:35:32.533Z,1.07
2022-09-02T12:38:06.233Z,1.20
2022-09-02T12:40:39.859Z,1.40
2022-09-02T12:43:14.039Z,1.45
2022-09-02T12:45:46.943Z,1.60
2022-09-02T12:48:21.562Z,2.10
2022-09-02T12:50:57.178Z,2.00
2022-09-02T12:53:30.391Z,2.58
2022-09-02T12:56:03.489Z,2.40
2022-09-02T12:58:36.901Z,2.62
2022-09-02T13:01:10.327Z,3.40
2022-09-02T13:03:41.869Z,3.42
2022-09-02T13:06:15.150Z,3.27
2022-09-02T13:08:48.424Z,4.42
2022-09-02T13:11:21.639Z,4.28
2022-09-02T13:13:55.221Z,4.42
2022-09-02T13:16:27.032Z,6.00
2022-09-02T13:19:00.268Z,5.00
2022-09-02T13:21:33.497Z,5.33
2022-09-02T13:24:06.756Z,5.45
2022-09-02T13:26:49.428Z,4.70
2022-09-02T13:29:13.545Z,4.42
2022-09-02T13:31:44.587Z,4.03
2022-09-02T13:34:16.478Z,4.33
2022-09-02T13:36:48.821Z,4.05
2022-09-02T13:39:20.528Z,4.75
2022-09-02T13:41:51.455Z,5.45
2022-09-02T13:44:24.315Z,4.40
2022-09-02T13:46:57.599Z,4.70
2022-09-02T13:49:35.186Z,4.25
2022-09-02T13:52:03.127Z,4.60
2022-09-02T13:54:36.435Z,4.15
2022-09-02T13:57:09.951Z,4.60
2022-09-02T13:59:43.040Z,4.28
2022-09-02T14:02:16.331Z,4.75
2022-09-02T14:04:47.469Z,4.25
2022-09-02T14:07:19.997Z,4.37
2022-09-02T14:09:51.818Z,4.40
2022-09-02T14:12:23.499Z,4.37
2022-09-02T14:14:55.026Z,4.62
2022-09-02T14:17:28.330Z,4.00
2022-09-02T14:20:02.213Z,4.55
2022-09-02T14:22:33.984Z,4.40
2022-09-02T14:25:07.175Z,4.53
2022-09-02T14:27:38.315Z,4.53
2022-09-02T14:30:11.195Z,4.67
2022-09-02T14:32:41.942Z,4.95
2022-09-02T14:35:15.252Z,4.28
2022-09-02T14:37:48.416Z,4.60
2022-09-02T14:40:21.010Z,5.22
2022-09-02T14:42:57.809Z,4.53
2022-09-02T14:45:29.043Z,5.30
2022-09-02T14:48:02.334Z,5.30
2022-09-02T14:50:36.773Z,4.40
2022-09-02T14:53:10.350Z,4.40
2022-09-02T14:55:43.900Z,4.03
2022-09-02T14:58:15.396Z,4.00
2022-09-02T15:00:48.903Z,4.97
2022-09-02T15:03:20.348Z,3.98
2022-09-02T15:05:51.704Z,4.50
2022-09-02T15:08:23.301Z,4.25
2022-09-02T15:10:56.020Z,4.47
2022-09-02T15:13:28.011Z,4.92
2022-09-02T15:16:00.570Z,4.20
2022-09-02T15:18:31.390Z,4.45
2022-09-02T15:21:02.131Z,4.75
2022-09-02T15:23:36.112Z,5.45
2022-09-02T15:26:05.841Z,4.53
2022-09-02T15:28:37.284Z,5.00
2022-09-02T15:31:08.264Z,4.47
2022-09-02T15:33:39.201Z,4.70
2022-09-02T15:36:12.602Z,4.92
2022-09-02T15:38:43.939Z,5.08
2022-09-02T15:41:17.350Z,4.67
2022-09-02T15:43:49.550Z,4.85
2022-09-02T15:46:21.297Z,4.37
2022-09-02T15:48:52.897Z,4.78
2022-09-02T15:51:26.500Z,4.55
2022-09-02T15:53:59.622Z,4.90
2022-09-02T15:56:32.501Z,4.95
2022-09-02T15:59:05.653Z,4.55
2022-09-02T16:01:39.545Z,4.97
2022-09-02T16:04:11.384Z,4.65
2022-09-02T16:06:44.448Z,4.55
2022-09-02T16:09:17.568Z,4.37
2022-09-02T16:11:50.959Z,4.17
2022-09-02T16:14:23.313Z,4.62
2022-09-02T16:16:56.615Z,4.70
2022-09-02T16:19:30.636Z,4.87
2022-09-02T16:22:01.916Z,4.65
2022-09-02T16:24:32.911Z,4.80
2022-09-02T16:27:04.455Z,4.22
2022-09-02T16:29:36.727Z,5.12
2022-09-02T16:32:24.376Z,5.30
2022-09-02T16:34:40.252Z,4.70
2022-09-02T16:37:10.985Z,4.87
2022-09-02T16:39:41.967Z,4.45
2022-09-02T16:42:12.978Z,4.72
2022-09-02T16:44:43.737Z,4.80
2022-09-02T16:47:14.651Z,4.92
2022-09-02T16:49:46.995Z,4.90
2022-09-02T16:52:17.659Z,5.35
2022-09-02T16:54:48.694Z,5.10
2022-09-02T16:57:19.356Z,5.25
2022-09-02T16:59:50.772Z,5.37
2022-09-02T17:02:22.158Z,5.78
2022-09-02T17:04:53.100Z,5.05
2022-09-02T17:07:24.287Z,5.17
2022-09-02T17:09:55.433Z,5.50
2022-09-02T17:12:27.522Z,5.22
2022-09-02T17:14:58.953Z,5.10
2022-09-02T17:17:30.366Z,5.53
2022-09-02T17:20:01.014Z,4.92
2022-09-02T17:22:31.973Z,5.05
2022-09-02T17:25:02.636Z,4.90
2022-09-02T17:27:34.391Z,4.72
2022-09-02T17:30:06.670Z,5.35
2022-09-02T17:32:37.654Z,5.37
2022-09-02T17:35:10.786Z,4.58
2022-09-02T17:37:42.224Z,4.87
2022-09-02T17:40:14.640Z,4.55
2022-09-02T17:42:45.485Z,4.40
2022-09-02T17:45:16.250Z,4.78
2022-09-02T17:47:47.097Z,4.37
2022-09-02T17:50:18.293Z,3.90
2022-09-02T17:52:49.130Z,4.42
2022-09-02T17:55:21.165Z,3.90
2022-09-02T17:57:54.445Z,3.80
2022-09-02T18:00:26.623Z,3.20
2022-09-02T18:03:00.209Z,3.50
2022-09-02T18:05:33.876Z,3.00
2022-09-02T18:08:05.617Z,3.90
2022-09-02T18:10:39.272Z,3.90
2022-09-02T18:13:13.810Z,4.03
2022-09-02T18:15:47.072Z,3.10
2022-09-02T18:18:18.558Z,3.65
2022-09-02T18:20:50.963Z,3.58
2022-09-02T18:23:24.288Z,3.60
2022-09-02T18:25:58.539Z,3.62
2022-09-02T18:28:30.528Z,3.62
2022-09-02T18:31:04.017Z,3.75
2022-09-02T18:33:37.231Z,3.65
2022-09-02T18:36:08.809Z,3.50
2022-09-02T18:38:42.417Z,3.58
2022-09-02T18:41:15.686Z,3.75
2022-09-02T18:43:49.200Z,4.03
2022-09-02T18:46:23.602Z,4.10
2022-09-02T18:48:56.241Z,3.72
2022-09-02T18:51:35.615Z,3.70
2022-09-02T18:54:07.019Z,3.52
2022-09-02T18:56:40.622Z,4.00
2022-09-02T18:59:16.062Z,3.95
2022-09-02T19:01:49.573Z,4.03
2022-09-02T19:04:20.511Z,4.22
2022-09-02T19:06:52.062Z,4.15
2022-09-02T19:09:25.621Z,3.95
2022-09-02T19:11:56.406Z,4.17
2022-09-02T19:14:28.241Z,4.55
2022-09-02T19:17:04.447Z,4.53
2022-09-02T19:19:36.703Z,4.80
2022-09-02T19:22:09.902Z,4.78
2022-09-02T19:24:44.206Z,4.17
2022-09-02T19:27:18.082Z,4.42
2022-09-02T19:29:56.373Z,4.58
2022-09-02T19:32:32.431Z,4.67
2022-09-02T19:35:08.282Z,4.40
2022-09-02T19:37:44.696Z,4.45
2022-09-02T19:40:17.024Z,4.47
2022-09-02T19:42:47.950Z,4.75
2022-09-02T19:45:19.462Z,4.58
2022-09-02T19:48:08.449Z,4.35
2022-09-02T19:50:26.354Z,4.15
2022-09-02T19:53:01.830Z,4.25
2022-09-02T19:55:33.919Z,4.00
2022-09-02T19:58:09.413Z,4.20
2022-09-02T20:00:43.688Z,4.62
2022-09-02T20:03:14.689Z,3.80
2022-09-02T20:05:45.609Z,3.83
2022-09-02T20:08:17.549Z,4.22
2022-09-02T20:10:52.299Z,3.72
2022-09-02T20:13:24.273Z,4.05
2022-09-02T20:15:56.144Z,4.33
2022-09-02T20:18:30.136Z,4.10
2022-09-02T20:21:02.678Z,4.15
2022-09-02T20:23:35.189Z,4.40
2022-09-02T20:26:08.582Z,4.35
2022-09-02T20:28:45.595Z,3.95
2022-09-02T20:31:16.870Z,4.55
2022-09-02T20:33:50.180Z,4.10
2022-09-02T20:36:26.587Z,4.28
2022-09-02T20:39:00.381Z,4.15
2022-09-02T20:41:33.878Z,4.10
2022-09-02T20:44:07.396Z,4.62
2022-09-02T20:46:43.594Z,4.05
2022-09-02T20:49:15.327Z,4.33
2022-09-02T20:51:50.632Z,4.37
2022-09-02T20:54:22.524Z,4.85
2022-09-02T20:56:55.827Z,4.42
2022-09-02T20:59:29.500Z,4.62
2022-09-02T21:02:03.916Z,4.33
2022-09-02T21:04:37.419Z,4.00
2022-09-02T21:07:10.617Z,4.47
2022-09-02T21:09:44.042Z,4.03
2022-09-02T21:12:17.412Z,3.83
2022-09-02T21:14:52.041Z,4.55
2022-09-02T21:17:25.400Z,4.12
2022-09-02T21:19:58.639Z,4.62
2022-09-02T21:22:32.060Z,3.95
2022-09-02T21:25:05.247Z,4.75
2022-09-02T21:27:38.613Z,4.40
2022-09-02T21:30:11.374Z,4.08
2022-09-02T21:32:45.411Z,4.05
2022-09-02T21:35:17.571Z,4.03
2022-09-02T21:37:50.325Z,4.30
2022-09-02T21:40:23.462Z,4.33
2022-09-02T21:42:56.851Z,4.60
2022-09-02T21:45:30.279Z,4.30
2022-09-02T21:48:03.583Z,4.22
2022-09-02T21:50:37.562Z,5.08
2022-09-02T21:53:13.474Z,5.10
2022-09-02T21:55:43.893Z,5.85
2022-09-02T21:58:17.319Z,4.97
2022-09-02T22:00:51.955Z,5.00
2022-09-02T22:03:26.552Z,4.53
2022-09-02T22:05:58.243Z,4.42
2022-09-02T22:08:32.851Z,4.80
2022-09-02T22:11:07.589Z,4.60
2022-09-02T22:13:40.481Z,4.72
2022-09-02T22:16:15.329Z,4.53
2022-09-02T22:18:50.057Z,4.25
2022-09-02T22:21:23.521Z,5.15
2022-09-02T22:23:58.320Z,4.75
2022-09-02T22:26:31.715Z,5.03
2022-09-02T22:29:10.315Z,5.35
2022-09-02T22:31:44.158Z,4.72
2022-09-02T22:34:20.725Z,4.90
2022-09-02T22:36:51.068Z,5.57
2022-09-02T22:39:25.294Z,5.40
2022-09-02T22:42:00.860Z,5.00
2022-09-02T22:44:35.588Z,5.05
2022-09-02T22:47:10.123Z,5.80
2022-09-02T22:49:44.674Z,6.80
2022-09-02T22:52:21.971Z,7.33
2022-09-02T22:54:53.479Z,7.15
2022-09-02T22:57:26.670Z,6.45
2022-09-02T23:00:02.540Z,6.05
2022-09-02T23:02:35.357Z,6.42
2022-09-02T23:05:09.042Z,6.00
2022-09-02T23:07:42.890Z,5.58
2022-09-02T23:10:16.565Z,7.83
2022-09-02T23:12:57.000Z,7.90
2022-09-02T23:15:31.594Z,6.05
2022-09-02T23:18:04.784Z,6.60
2022-09-02T23:20:39.332Z,6.70
2022-09-02T23:23:13.931Z,5.92
2022-09-02T23:25:49.162Z,5.87
2022-09-02T23:28:22.190Z,5.70
2022-09-02T23:30:56.915Z,6.35
2022-09-02T23:33:30.131Z,5.70
2022-09-02T23:36:01.778Z,5.80
2022-09-02T23:38:35.939Z,6.25
2022-09-02T23:41:09.540Z,5.90
2022-09-02T23:43:47.001Z,6.58
2022-09-02T23:46:17.972Z,7.60
2022-09-02T23:48:51.221Z,5.97
2022-09-02T23:51:24.420Z,7.08
2022-09-02T23:53:58.282Z,6.70
2022-09-02T23:56:39.336Z,7.40
2022-09-02T23:59:13.164Z,6.78
